Terminal Aerodrome Forecast
Issued by NWS Wichita, KS

Home | Current Version | Previous Version | Text Only | Print | Product List | Glossary On
Versions: 1 2 3 4 5 6 7 8 9 10 11 12
000
FTUS43 KICT 141100
TAFICT
TAF
KICT 141120Z 1412/1512 24006KT P6SM SCT150
     FM141900 36010KT P6SM VCTS SCT050CB BKN080
     FM150200 01014KT P6SM SCT150=

USA.gov is the U.S. government's official web portal to all federal, state and local government web resources and services.